Time;durP1;ratioP1;P1;durP2;ratioP2;P2;SDS_P1;SDS_P2;PMS_P1;PMS_P2;Temp;Humidity;BMP_temperature;BMP_pressure;BME280_temperature;BME280_humidity;BME280_pressure;Samples;Min_cycle;Max_cycle;Signal;HPM_P1;HPM_P2
2021/07/09 00:01:58;;;;;;;;;;;17.50;81.40;;;;;;5033089;28;19960;-76
2021/07/09 00:04:25;;;;;;;;;;;17.50;81.40;;;;;;5032872;28;20296;-76
2021/07/09 00:06:51;;;;;;;;;;;17.40;81.30;;;;;;5033093;28;20361;-75
2021/07/09 00:09:18;;;;;;;;;;;17.40;81.30;;;;;;5033087;28;20380;-76
2021/07/09 00:11:48;;;;;;;;;;;17.40;81.40;;;;;;5032530;28;20309;-76
2021/07/09 00:14:15;;;;;;;;;;;17.40;81.30;;;;;;5032364;28;19999;-76
2021/07/09 00:16:43;;;;;;;;;;;17.40;81.50;;;;;;5032153;28;20266;-76
2021/07/09 00:19:10;;;;;;;;;;;17.40;81.60;;;;;;5032933;28;19944;-76
2021/07/09 00:21:36;;;;;;;;;;;17.30;81.70;;;;;;5029721;28;19933;-76
2021/07/09 00:24:04;;;;;;;;;;;17.40;81.90;;;;;;5027362;28;19928;-76
2021/07/09 00:26:31;;;;;;;;;;;17.30;82.00;;;;;;5032698;28;19921;-76
2021/07/09 00:28:58;;;;;;;;;;;17.30;82.00;;;;;;5032180;28;19925;-75
2021/07/09 00:31:24;;;;;;;;;;;17.30;82.10;;;;;;5032476;28;19979;-76
2021/07/09 00:33:51;;;;;;;;;;;17.30;82.10;;;;;;5032133;28;20396;-76
2021/07/09 00:36:17;;;;;;;;;;;17.30;82.00;;;;;;5024908;28;19970;-76
2021/07/09 00:38:44;;;;;;;;;;;17.30;82.10;;;;;;5024400;28;19932;-76
2021/07/09 00:41:10;;;;;;;;;;;17.20;82.10;;;;;;5032195;28;20274;-76
2021/07/09 00:43:37;;;;;;;;;;;17.30;82.30;;;;;;5032084;28;19925;-76
2021/07/09 00:46:03;;;;;;;;;;;17.20;82.10;;;;;;5031864;28;19921;-76
2021/07/09 00:48:29;;;;;;;;;;;17.20;82.30;;;;;;5032611;28;20022;-76
2021/07/09 00:50:57;;;;;;;;;;;17.20;82.50;;;;;;5029776;28;19964;-76
2021/07/09 00:53:23;;;;;;;;;;;17.30;82.50;;;;;;5029432;28;19928;-76
2021/07/09 00:55:49;;;;;;;;;;;17.20;82.20;;;;;;5030828;28;19921;-76
2021/07/09 00:58:15;;;;;;;;;;;17.30;82.40;;;;;;5032069;28;19967;-76
2021/07/09 01:00:42;;;;;;;;;;;17.30;82.20;;;;;;5014736;28;19921;-76
2021/07/09 01:03:08;;;;;;;;;;;17.30;82.10;;;;;;5032096;28;20416;-76
2021/07/09 01:05:36;;;;;;;;;;;17.30;82.10;;;;;;5031980;28;20549;-76
2021/07/09 01:08:05;;;;;;;;;;;17.30;82.10;;;;;;5021854;28;20416;-76
2021/07/09 01:10:33;;;;;;;;;;;17.30;82.00;;;;;;5014397;28;19929;-76
2021/07/09 01:13:01;;;;;;;;;;;17.30;82.10;;;;;;5031843;28;19932;-75
2021/07/09 01:15:27;;;;;;;;;;;17.30;82.00;;;;;;5031735;28;19928;-76
2021/07/09 01:17:53;;;;;;;;;;;17.30;82.10;;;;;;5032013;28;19927;-76
2021/07/09 01:20:21;;;;;;;;;;;17.30;82.00;;;;;;5031877;28;20007;-76
2021/07/09 01:22:48;;;;;;;;;;;17.30;81.90;;;;;;5010527;28;20072;-76
2021/07/09 01:25:16;;;;;;;;;;;17.30;82.00;;;;;;5030056;28;19925;-76
2021/07/09 01:27:44;;;;;;;;;;;17.20;82.00;;;;;;5031747;28;19925;-76
2021/07/09 01:30:13;;;;;;;;;;;17.20;82.30;;;;;;5029258;28;19991;-76
2021/07/09 01:32:40;;;;;;;;;;;17.20;82.50;;;;;;5031156;28;19921;-76
2021/07/09 01:35:06;;;;;;;;;;;17.20;82.40;;;;;;5031168;28;19921;-76
2021/07/09 01:37:33;;;;;;;;;;;17.30;82.40;;;;;;5031965;28;20293;-76
2021/07/09 01:40:01;;;;;;;;;;;17.20;82.30;;;;;;5031616;28;20601;-76
2021/07/09 01:42:27;;;;;;;;;;;17.20;82.30;;;;;;5031472;28;20296;-76
2021/07/09 01:44:53;;;;;;;;;;;17.20;82.50;;;;;;5031761;28;19944;-76
2021/07/09 01:47:19;;;;;;;;;;;17.20;82.60;;;;;;5031920;28;19968;-76
2021/07/09 01:49:59;;;;;;;;;;;17.20;82.60;;;;;;5010363;28;20397;-76
2021/07/09 01:52:26;;;;;;;;;;;17.20;82.60;;;;;;5028646;28;20292;-76
2021/07/09 01:54:52;;;;;;;;;;;17.20;82.60;;;;;;5031542;28;19928;-76
2021/07/09 01:57:18;;;;;;;;;;;17.20;82.60;;;;;;5031526;28;19921;-76
2021/07/09 01:59:45;;;;;;;;;;;17.10;82.50;;;;;;5031507;28;19957;-76
2021/07/09 02:02:11;;;;;;;;;;;17.10;82.60;;;;;;5025621;28;19959;-76
2021/07/09 02:04:45;;;;;;;;;;;17.10;82.70;;;;;;5031335;28;20063;-76
2021/07/09 02:07:12;;;;;;;;;;;17.00;82.80;;;;;;5031527;28;19928;-76
2021/07/09 02:09:40;;;;;;;;;;;17.10;82.80;;;;;;5034869;28;20451;-76
2021/07/09 02:12:06;;;;;;;;;;;17.00;82.90;;;;;;5035159;28;19968;-76
2021/07/09 02:14:32;;;;;;;;;;;17.00;83.00;;;;;;5034814;28;19944;-76
2021/07/09 02:16:58;;;;;;;;;;;17.00;83.10;;;;;;5033132;28;20356;-76
2021/07/09 02:19:24;;;;;;;;;;;17.00;83.10;;;;;;5034821;28;19978;-75
2021/07/09 02:21:52;;;;;;;;;;;16.90;83.40;;;;;;5034838;28;20417;-75
2021/07/09 02:24:19;;;;;;;;;;;16.90;83.70;;;;;;5034710;28;20454;-75
2021/07/09 02:26:45;;;;;;;;;;;16.80;83.70;;;;;;5034611;28;19921;-75
2021/07/09 02:29:11;;;;;;;;;;;16.80;83.70;;;;;;5034915;28;19928;-76
2021/07/09 02:31:37;;;;;;;;;;;16.80;83.50;;;;;;5034688;28;19983;-75
2021/07/09 02:34:03;;;;;;;;;;;16.80;83.50;;;;;;5026901;28;20004;-76
2021/07/09 02:36:29;;;;;;;;;;;16.80;83.50;;;;;;5010502;28;19967;-76
2021/07/09 02:38:55;;;;;;;;;;;16.80;83.50;;;;;;5028016;28;19928;-76
2021/07/09 02:41:21;;;;;;;;;;;16.80;84.40;;;;;;5034549;28;19920;-76
2021/07/09 02:43:48;;;;;;;;;;;16.80;83.60;;;;;;5034411;28;19994;-76
2021/07/09 02:46:14;;;;;;;;;;;16.80;83.70;;;;;;5034605;28;20015;-76
2021/07/09 02:48:40;;;;;;;;;;;16.80;83.80;;;;;;5034604;28;19972;-76
2021/07/09 02:51:06;;;;;;;;;;;16.80;83.80;;;;;;5034581;28;20004;-76
2021/07/09 02:53:32;;;;;;;;;;;16.80;83.80;;;;;;5034002;28;20105;-76
2021/07/09 02:55:58;;;;;;;;;;;16.70;83.80;;;;;;5034348;28;20052;-76
2021/07/09 02:58:24;;;;;;;;;;;16.80;83.80;;;;;;5034432;28;20039;-76
2021/07/09 03:00:50;;;;;;;;;;;16.80;83.80;;;;;;5027474;28;19924;-78
2021/07/09 03:03:16;;;;;;;;;;;16.80;83.70;;;;;;5033554;28;19979;-76
2021/07/09 03:05:43;;;;;;;;;;;16.80;83.80;;;;;;5029833;28;20047;-76
2021/07/09 03:08:09;;;;;;;;;;;16.80;83.70;;;;;;5033877;28;19921;-76
2021/07/09 03:10:35;;;;;;;;;;;16.80;83.60;;;;;;5025787;28;19921;-76
2021/07/09 03:13:01;;;;;;;;;;;16.80;83.70;;;;;;5034622;28;19921;-76
2021/07/09 03:15:28;;;;;;;;;;;16.90;83.60;;;;;;5033610;28;19947;-76
2021/07/09 03:17:54;;;;;;;;;;;16.90;83.40;;;;;;5031508;28;20337;-76
2021/07/09 03:20:20;;;;;;;;;;;16.90;83.40;;;;;;5032892;28;19968;-76
2021/07/09 03:22:46;;;;;;;;;;;16.90;83.50;;;;;;5033365;28;19998;-76
2021/07/09 03:25:12;;;;;;;;;;;16.80;83.60;;;;;;5034042;28;19921;-76
2021/07/09 03:27:39;;;;;;;;;;;16.80;83.60;;;;;;5033894;28;19978;-76
2021/07/09 03:30:06;;;;;;;;;;;16.80;83.70;;;;;;5033488;28;20062;-76
2021/07/09 03:32:32;;;;;;;;;;;16.80;83.60;;;;;;5033711;28;19920;-76
2021/07/09 03:34:58;;;;;;;;;;;16.70;83.40;;;;;;5032390;28;19993;-76
2021/07/09 03:37:24;;;;;;;;;;;16.70;83.60;;;;;;5033005;28;19925;-75
2021/07/09 03:39:50;;;;;;;;;;;16.70;83.80;;;;;;5033468;28;20376;-76
2021/07/09 03:42:18;;;;;;;;;;;16.70;83.90;;;;;;5033200;28;19964;-76
2021/07/09 03:44:44;;;;;;;;;;;16.70;83.90;;;;;;5033554;28;20428;-76
2021/07/09 03:47:10;;;;;;;;;;;16.70;83.90;;;;;;5033362;28;19972;-76
2021/07/09 03:49:36;;;;;;;;;;;16.70;83.90;;;;;;5033194;28;20491;-76
2021/07/09 03:52:02;;;;;;;;;;;16.70;83.90;;;;;;5032530;28;20377;-76
2021/07/09 03:54:28;;;;;;;;;;;16.70;83.90;;;;;;5033188;28;19976;-76
2021/07/09 03:56:55;;;;;;;;;;;16.70;84.10;;;;;;5032685;28;19929;-76
2021/07/09 03:59:22;;;;;;;;;;;16.70;84.20;;;;;;5029970;28;19921;-75
2021/07/09 04:01:48;;;;;;;;;;;16.70;84.30;;;;;;5033205;28;19963;-76
2021/07/09 04:04:14;;;;;;;;;;;16.70;84.30;;;;;;5032838;28;20055;-76
2021/07/09 04:06:40;;;;;;;;;;;16.70;84.20;;;;;;5032844;28;20046;-76
2021/07/09 04:09:07;;;;;;;;;;;16.70;84.00;;;;;;5033049;28;19999;-77
2021/07/09 04:11:33;;;;;;;;;;;16.70;84.10;;;;;;5032881;28;19921;-76
2021/07/09 04:13:59;;;;;;;;;;;16.70;84.10;;;;;;5032431;28;19921;-76
2021/07/09 04:16:25;;;;;;;;;;;16.70;84.30;;;;;;5032983;28;20402;-77
2021/07/09 04:18:51;;;;;;;;;;;16.70;84.50;;;;;;5032692;28;20536;-76
2021/07/09 04:21:17;;;;;;;;;;;16.70;84.50;;;;;;5029014;28;19974;-76
2021/07/09 04:23:43;;;;;;;;;;;16.70;84.30;;;;;;5032713;28;19921;-76
2021/07/09 04:26:09;;;;;;;;;;;16.70;84.30;;;;;;5026573;28;19972;-76
2021/07/09 04:28:36;;;;;;;;;;;16.70;84.40;;;;;;5032622;28;19927;-76
2021/07/09 04:31:02;;;;;;;;;;;16.60;84.50;;;;;;5032226;28;20008;-76
2021/07/09 04:33:28;;;;;;;;;;;16.60;83.80;;;;;;5024818;28;20060;-76
2021/07/09 04:35:54;;;;;;;;;;;16.60;83.50;;;;;;5032413;28;20388;-76
2021/07/09 04:38:20;;;;;;;;;;;16.60;83.40;;;;;;5032053;28;20492;-77
2021/07/09 04:40:46;;;;;;;;;;;16.60;83.70;;;;;;5031979;28;19953;-76
2021/07/09 04:43:12;;;;;;;;;;;16.60;84.00;;;;;;5031851;28;20368;-75
2021/07/09 04:45:39;;;;;;;;;;;16.60;83.80;;;;;;5032354;28;19964;-76
2021/07/09 04:48:05;;;;;;;;;;;16.60;84.10;;;;;;5028755;28;20059;-76
2021/07/09 04:50:32;;;;;;;;;;;16.50;83.70;;;;;;5014208;28;19995;-76
2021/07/09 04:52:58;;;;;;;;;;;16.50;83.90;;;;;;5032057;28;20015;-76
2021/07/09 04:55:24;;;;;;;;;;;16.40;83.70;;;;;;5031813;28;19921;-76
2021/07/09 04:57:50;;;;;;;;;;;16.40;84.00;;;;;;5032001;28;20381;-76
2021/07/09 05:00:17;;;;;;;;;;;16.50;84.50;;;;;;5031494;28;20376;-76
2021/07/09 05:02:43;;;;;;;;;;;16.40;84.80;;;;;;5029913;28;20020;-75
2021/07/09 05:05:10;;;;;;;;;;;16.40;84.40;;;;;;5027154;28;20017;-76
2021/07/09 05:07:36;;;;;;;;;;;16.50;84.40;;;;;;5031772;28;19924;-71
2021/07/09 05:10:03;;;;;;;;;;;16.50;84.50;;;;;;5031633;28;20285;-71
2021/07/09 05:12:30;;;;;;;;;;;16.40;84.50;;;;;;5030907;28;19932;-71
2021/07/09 05:14:56;;;;;;;;;;;16.50;84.50;;;;;;5031198;28;20007;-71
2021/07/09 05:17:22;;;;;;;;;;;16.50;84.00;;;;;;5030844;28;19921;-71
2021/07/09 05:19:52;;;;;;;;;;;16.50;84.00;;;;;;5031114;28;20329;-71
2021/07/09 05:22:19;;;;;;;;;;;16.50;83.20;;;;;;5030922;28;20011;-71
2021/07/09 05:24:45;;;;;;;;;;;16.50;83.20;;;;;;5023579;28;20060;-71
2021/07/09 05:27:12;;;;;;;;;;;16.50;83.00;;;;;;5031074;28;19925;-71
2021/07/09 05:29:38;;;;;;;;;;;16.60;82.70;;;;;;5030451;28;20396;-71
2021/07/09 05:32:04;;;;;;;;;;;16.60;82.40;;;;;;5030773;28;19921;-72
2021/07/09 05:34:30;;;;;;;;;;;16.60;82.60;;;;;;5030847;28;19964;-72
2021/07/09 05:36:56;;;;;;;;;;;16.60;82.20;;;;;;5030700;28;19925;-71
2021/07/09 05:39:23;;;;;;;;;;;16.60;82.20;;;;;;5030972;28;19928;-71
2021/07/09 05:41:49;;;;;;;;;;;16.70;81.90;;;;;;5030814;28;20403;-71
2021/07/09 05:44:15;;;;;;;;;;;16.70;81.70;;;;;;5033662;28;20450;-71
2021/07/09 05:46:41;;;;;;;;;;;16.60;81.80;;;;;;5034808;28;19948;-71
2021/07/09 05:49:07;;;;;;;;;;;16.60;81.50;;;;;;5032197;28;19983;-71
2021/07/09 05:51:33;;;;;;;;;;;16.60;81.50;;;;;;5034990;28;20265;-71
2021/07/09 05:53:59;;;;;;;;;;;16.60;82.40;;;;;;5031152;28;19928;-72
2021/07/09 05:56:26;;;;;;;;;;;16.60;82.10;;;;;;5034485;28;19921;-72
2021/07/09 05:58:52;;;;;;;;;;;16.60;81.80;;;;;;5035267;28;20301;-71
2021/07/09 06:01:18;;;;;;;;;;;16.60;82.10;;;;;;5027606;28;20361;-71
2021/07/09 06:03:44;;;;;;;;;;;16.70;82.50;;;;;;5032585;28;19921;-71
2021/07/09 06:06:11;;;;;;;;;;;16.70;82.30;;;;;;5034125;28;20030;-71
2021/07/09 06:08:37;;;;;;;;;;;16.80;81.80;;;;;;5034283;28;20347;-71
2021/07/09 06:11:03;;;;;;;;;;;16.80;81.70;;;;;;5032024;28;19924;-71
2021/07/09 06:13:29;;;;;;;;;;;16.80;81.60;;;;;;5032615;28;20368;-72
2021/07/09 06:15:56;;;;;;;;;;;16.80;81.50;;;;;;5032806;28;20438;-72
2021/07/09 06:18:22;;;;;;;;;;;16.80;82.90;;;;;;5034806;28;19921;-71
2021/07/09 06:20:48;;;;;;;;;;;16.80;82.60;;;;;;5033754;28;20025;-72
2021/07/09 06:23:15;;;;;;;;;;;16.90;82.00;;;;;;5033141;28;19921;-72
2021/07/09 06:25:41;;;;;;;;;;;16.90;82.40;;;;;;5035231;28;20031;-72
2021/07/09 06:28:07;;;;;;;;;;;16.90;82.20;;;;;;5028656;28;20012;-72
2021/07/09 06:30:33;;;;;;;;;;;16.90;81.70;;;;;;5030767;28;19928;-71
2021/07/09 06:33:00;;;;;;;;;;;16.90;81.80;;;;;;5030918;28;20023;-73
2021/07/09 06:35:29;;;;;;;;;;;16.90;81.80;;;;;;5034599;28;19925;-72
2021/07/09 06:37:56;;;;;;;;;;;16.90;81.50;;;;;;5034531;28;20393;-74
2021/07/09 06:40:22;;;;;;;;;;;16.90;82.10;;;;;;5034579;28;20349;-74
2021/07/09 06:42:48;;;;;;;;;;;16.80;82.50;;;;;;5030651;28;19928;-73
2021/07/09 06:45:14;;;;;;;;;;;16.80;82.80;;;;;;5034302;28;19925;-74
2021/07/09 06:47:40;;;;;;;;;;;16.80;82.70;;;;;;5028299;28;19975;-75
2021/07/09 06:50:07;;;;;;;;;;;16.80;82.10;;;;;;5028271;28;20482;-73
2021/07/09 06:52:33;;;;;;;;;;;16.80;83.20;;;;;;5024523;28;20410;-75
2021/07/09 06:54:59;;;;;;;;;;;16.70;82.60;;;;;;5023875;28;20012;-73
2021/07/09 06:57:26;;;;;;;;;;;16.60;82.30;;;;;;5025962;28;19929;-74
2021/07/09 06:59:52;;;;;;;;;;;16.60;82.80;;;;;;5007891;28;19925;-74
2021/07/09 07:02:19;;;;;;;;;;;16.60;83.30;;;;;;5020159;28;19924;-73
2021/07/09 07:04:45;;;;;;;;;;;16.60;83.40;;;;;;4998560;28;19936;-73
2021/07/09 07:07:11;;;;;;;;;;;16.70;82.50;;;;;;5025354;28;20427;-73
2021/07/09 07:09:38;;;;;;;;;;;16.70;82.20;;;;;;5012119;28;19971;-75
2021/07/09 07:12:05;;;;;;;;;;;16.70;81.90;;;;;;5019451;28;19948;-77
2021/07/09 07:14:32;;;;;;;;;;;16.70;82.20;;;;;;5024146;28;19964;-78
2021/07/09 07:16:58;;;;;;;;;;;16.70;82.30;;;;;;5029979;28;19925;-74
2021/07/09 07:19:25;;;;;;;;;;;16.70;82.10;;;;;;5024790;28;20066;-76
2021/07/09 07:21:52;;;;;;;;;;;16.60;82.10;;;;;;5022937;28;20304;-75
2021/07/09 07:24:18;;;;;;;;;;;16.50;83.20;;;;;;5029778;28;20407;-75
2021/07/09 07:26:44;;;;;;;;;;;16.50;84.00;;;;;;5011965;28;20011;-74
2021/07/09 07:29:10;;;;;;;;;;;16.50;83.40;;;;;;5029875;28;19932;-75
2021/07/09 07:31:36;;;;;;;;;;;16.50;82.90;;;;;;5029810;28;19978;-75
2021/07/09 07:34:02;;;;;;;;;;;16.40;84.70;;;;;;5023149;28;19925;-75
2021/07/09 07:36:29;;;;;;;;;;;16.30;84.10;;;;;;5025070;28;20060;-75
2021/07/09 07:38:55;;;;;;;;;;;16.30;83.60;;;;;;5011754;28;20079;-75
2021/07/09 07:41:21;;;;;;;;;;;16.20;84.50;;;;;;5029361;28;20055;-75
2021/07/09 07:43:47;;;;;;;;;;;16.20;85.10;;;;;;5031666;28;19925;-74
2021/07/09 07:46:14;;;;;;;;;;;16.30;84.10;;;;;;5028781;28;20400;-74
2021/07/09 07:48:40;;;;;;;;;;;16.40;84.20;;;;;;5029507;28;19929;-73
2021/07/09 07:51:06;;;;;;;;;;;16.40;84.20;;;;;;5029791;28;20008;-74
2021/07/09 07:53:34;;;;;;;;;;;16.40;83.80;;;;;;5029147;28;19932;-74
2021/07/09 07:56:01;;;;;;;;;;;16.50;83.40;;;;;;5029590;28;19925;-73
2021/07/09 07:58:28;;;;;;;;;;;16.60;83.00;;;;;;5011019;28;19924;-75
2021/07/09 08:00:54;;;;;;;;;;;16.70;82.50;;;;;;5028821;28;20407;-75
2021/07/09 08:03:20;;;;;;;;;;;16.80;81.40;;;;;;5031941;28;19948;-75
2021/07/09 08:05:46;;;;;;;;;;;16.90;81.10;;;;;;5028640;28;19929;-75
2021/07/09 08:08:12;;;;;;;;;;;17.00;81.20;;;;;;5028836;28;19925;-74
2021/07/09 08:10:38;;;;;;;;;;;17.10;81.00;;;;;;5028463;28;19991;-74
2021/07/09 08:13:05;;;;;;;;;;;17.20;80.50;;;;;;5028688;28;19931;-75
2021/07/09 08:15:31;;;;;;;;;;;17.20;78.80;;;;;;5027578;28;20467;-74
2021/07/09 08:17:57;;;;;;;;;;;17.20;79.30;;;;;;5008718;28;19925;-75
2021/07/09 08:20:23;;;;;;;;;;;17.30;80.00;;;;;;5025812;28;19925;-75
2021/07/09 08:22:49;;;;;;;;;;;17.40;80.20;;;;;;5027799;28;20422;-75
2021/07/09 08:25:16;;;;;;;;;;;17.40;79.50;;;;;;5028831;28;19924;-74
2021/07/09 08:27:42;;;;;;;;;;;17.40;79.20;;;;;;5028355;28;20032;-74
2021/07/09 08:30:09;;;;;;;;;;;17.40;79.10;;;;;;5027899;28;19921;-74
2021/07/09 08:32:35;;;;;;;;;;;17.40;79.60;;;;;;5023801;28;19929;-74
2021/07/09 08:35:03;;;;;;;;;;;17.40;79.70;;;;;;5025232;28;19928;-75
2021/07/09 08:37:29;;;;;;;;;;;17.40;79.60;;;;;;5002438;28;19968;-75
2021/07/09 08:39:55;;;;;;;;;;;17.50;79.70;;;;;;5011860;28;19940;-74
2021/07/09 08:42:21;;;;;;;;;;;17.50;79.70;;;;;;5006201;28;19925;-74
2021/07/09 08:44:47;;;;;;;;;;;17.60;79.20;;;;;;5016777;28;19925;-76
2021/07/09 08:47:13;;;;;;;;;;;17.70;78.80;;;;;;5028800;28;19978;-74
2021/07/09 08:49:42;;;;;;;;;;;17.70;78.40;;;;;;5028222;28;19933;-74
2021/07/09 08:52:09;;;;;;;;;;;17.70;77.70;;;;;;5028605;28;20416;-75
2021/07/09 08:54:35;;;;;;;;;;;17.80;78.00;;;;;;5028521;28;20055;-74
2021/07/09 08:57:01;;;;;;;;;;;17.80;78.20;;;;;;5028345;28;20063;-75
2021/07/09 08:59:27;;;;;;;;;;;17.90;78.40;;;;;;5009009;28;20470;-74
2021/07/09 09:01:57;;;;;;;;;;;18.00;78.50;;;;;;5028517;28;20011;-74
2021/07/09 09:04:25;;;;;;;;;;;18.10;77.50;;;;;;5021639;28;20376;-73
2021/07/09 09:07:00;;;;;;;;;;;18.10;76.90;;;;;;5028280;28;19975;-74
2021/07/09 09:09:26;;;;;;;;;;;18.20;76.60;;;;;;5021369;28;19929;-75
2021/07/09 09:12:13;;;;;;;;;;;18.30;75.90;;;;;;5028521;28;19924;-74
2021/07/09 09:14:41;;;;;;;;;;;18.30;75.70;;;;;;5028175;28;20036;-74
2021/07/09 09:17:26;;;;;;;;;;;18.40;74.70;;;;;;5029671;28;20424;-73
2021/07/09 09:20:05;;;;;;;;;;;18.40;74.70;;;;;;5010566;28;20019;-74
2021/07/09 09:22:32;;;;;;;;;;;18.50;74.60;;;;;;5024280;28;20015;-74
2021/07/09 09:24:58;;;;;;;;;;;18.60;73.70;;;;;;5041675;28;19968;-74
2021/07/09 09:27:24;;;;;;;;;;;18.60;73.80;;;;;;5032702;28;19929;-75
2021/07/09 09:29:50;;;;;;;;;;;18.70;74.30;;;;;;5037297;28;19924;-74
2021/07/09 09:32:17;;;;;;;;;;;18.70;74.50;;;;;;5032006;28;20039;-74
2021/07/09 09:34:46;;;;;;;;;;;18.70;73.90;;;;;;5031868;28;20351;-75
2021/07/09 09:37:16;;;;;;;;;;;18.70;74.30;;;;;;5012410;28;19933;-74
2021/07/09 09:39:43;;;;;;;;;;;18.70;75.10;;;;;;5029844;28;19925;-74
2021/07/09 09:42:19;;;;;;;;;;;18.70;74.70;;;;;;5012484;28;20036;-74
2021/07/09 09:44:47;;;;;;;;;;;18.80;74.20;;;;;;5014164;28;19928;-75
2021/07/09 09:47:20;;;;;;;;;;;18.80;74.00;;;;;;5011930;28;20302;-74
2021/07/09 09:49:51;;;;;;;;;;;18.80;73.50;;;;;;5002614;28;20434;-72
2021/07/09 09:52:31;;;;;;;;;;;18.80;72.20;;;;;;5017621;28;20056;-74
2021/07/09 09:54:57;;;;;;;;;;;18.90;71.10;;;;;;5017477;28;19925;-73
2021/07/09 09:57:24;;;;;;;;;;;18.90;70.70;;;;;;5028437;28;19935;-74
2021/07/09 09:59:51;;;;;;;;;;;19.00;71.40;;;;;;5031540;28;19982;-75
2021/07/09 10:02:21;;;;;;;;;;;19.00;72.10;;;;;;5029011;28;19998;-74
2021/07/09 10:04:47;;;;;;;;;;;19.10;72.50;;;;;;5031329;28;20011;-75
2021/07/09 10:07:13;;;;;;;;;;;19.10;71.20;;;;;;5032067;28;20003;-76
2021/07/09 10:09:40;;;;;;;;;;;19.10;72.00;;;;;;5031243;28;20019;-76
2021/07/09 10:12:06;;;;;;;;;;;19.10;71.60;;;;;;5031565;28;19928;-75
2021/07/09 10:14:34;;;;;;;;;;;19.10;71.60;;;;;;5031381;28;19932;-75
2021/07/09 10:17:02;;;;;;;;;;;19.20;72.50;;;;;;5031401;28;19995;-75
2021/07/09 10:19:38;;;;;;;;;;;19.10;72.90;;;;;;5031569;28;19947;-75
2021/07/09 10:22:05;;;;;;;;;;;19.20;73.20;;;;;;5031327;28;19932;-76
2021/07/09 10:24:33;;;;;;;;;;;19.30;73.10;;;;;;5031204;28;19925;-75
2021/07/09 10:27:00;;;;;;;;;;;19.40;73.70;;;;;;5031472;28;19960;-76
2021/07/09 10:29:30;;;;;;;;;;;19.50;71.40;;;;;;5030398;28;19948;-76
2021/07/09 10:31:57;;;;;;;;;;;19.40;70.50;;;;;;5024994;28;20062;-76
2021/07/09 10:34:27;;;;;;;;;;;19.30;70.70;;;;;;5031130;28;20384;-75
2021/07/09 10:36:55;;;;;;;;;;;19.20;69.80;;;;;;5030587;28;19925;-76
2021/07/09 10:39:33;;;;;;;;;;;19.00;70.30;;;;;;5031116;28;19990;-75
2021/07/09 10:42:28;;;;;;;;;;;19.00;71.40;;;;;;5030706;28;19929;-76
2021/07/09 10:44:57;;;;;;;;;;;19.00;72.80;;;;;;5029178;28;19947;-76
2021/07/09 10:47:34;;;;;;;;;;;18.90;73.50;;;;;;5034086;28;20003;-76
2021/07/09 10:50:01;;;;;;;;;;;18.90;73.10;;;;;;5030716;28;20036;-76
2021/07/09 10:52:47;;;;;;;;;;;18.80;73.20;;;;;;5010987;28;20035;-76
2021/07/09 10:55:32;;;;;;;;;;;18.80;73.10;;;;;;5026683;28;19931;-76
2021/07/09 10:58:07;;;;;;;;;;;18.80;72.50;;;;;;5030580;28;20007;-76
2021/07/09 11:00:44;;;;;;;;;;;18.90;72.20;;;;;;5012917;28;20380;-76
2021/07/09 11:03:10;;;;;;;;;;;19.00;71.50;;;;;;5030377;28;20007;-75
2021/07/09 11:05:57;;;;;;;;;;;19.20;71.50;;;;;;5036493;28;20375;-75
2021/07/09 11:08:32;;;;;;;;;;;19.50;71.80;;;;;;5011680;28;19928;-76
2021/07/09 11:11:11;;;;;;;;;;;19.70;70.20;;;;;;5021914;28;20336;-76
2021/07/09 11:13:49;;;;;;;;;;;20.00;70.20;;;;;;5029317;28;19925;-75
2021/07/09 11:16:15;;;;;;;;;;;20.20;69.70;;;;;;5015623;28;20359;-75
2021/07/09 11:19:07;;;;;;;;;;;20.40;69.30;;;;;;5029791;28;19944;-75
2021/07/09 11:21:36;;;;;;;;;;;20.60;68.50;;;;;;5018260;28;19947;-75
2021/07/09 11:24:19;;;;;;;;;;;20.70;67.90;;;;;;5029741;28;20019;-75
2021/07/09 11:26:46;;;;;;;;;;;20.70;65.40;;;;;;5029538;28;20357;-75
2021/07/09 11:29:31;;;;;;;;;;;20.70;65.50;;;;;;5029873;28;19936;-75
2021/07/09 11:32:00;;;;;;;;;;;20.60;66.00;;;;;;5029742;28;19924;-76
2021/07/09 11:34:27;;;;;;;;;;;20.60;64.60;;;;;;5029373;28;19929;-75
2021/07/09 11:36:55;;;;;;;;;;;20.50;65.00;;;;;;5013516;28;20035;-75
2021/07/09 11:39:21;;;;;;;;;;;20.50;65.30;;;;;;5027026;28;19925;-75
2021/07/09 11:41:52;;;;;;;;;;;20.40;65.60;;;;;;5025903;28;19952;-76
2021/07/09 11:44:20;;;;;;;;;;;20.40;66.30;;;;;;5026239;28;20380;-75
2021/07/09 11:46:50;;;;;;;;;;;20.40;66.50;;;;;;5024763;28;20491;-75
2021/07/09 11:49:20;;;;;;;;;;;20.30;66.80;;;;;;5029471;28;19986;-76
2021/07/09 11:51:50;;;;;;;;;;;20.30;65.90;;;;;;5027662;28;19925;-76
2021/07/09 11:54:24;;;;;;;;;;;20.20;65.20;;;;;;5029641;28;20073;-76
2021/07/09 11:56:51;;;;;;;;;;;20.20;65.20;;;;;;5029389;28;19974;-75
2021/07/09 11:59:19;;;;;;;;;;;20.00;65.70;;;;;;5029425;28;20455;-75
2021/07/09 12:02:05;;;;;;;;;;;20.00;66.10;;;;;;5007966;28;19932;-75
2021/07/09 12:04:32;;;;;;;;;;;20.00;66.60;;;;;;5027633;28;19925;-75
2021/07/09 12:07:16;;;;;;;;;;;19.90;67.10;;;;;;5029454;28;20466;-75
2021/07/09 12:09:43;;;;;;;;;;;19.90;66.80;;;;;;5028523;28;20004;-76
2021/07/09 12:12:09;;;;;;;;;;;19.80;67.20;;;;;;5027180;28;19925;-75
2021/07/09 12:14:54;;;;;;;;;;;19.70;67.20;;;;;;5029028;28;20277;-75
2021/07/09 12:17:21;;;;;;;;;;;19.60;66.90;;;;;;5011711;28;19924;-75
2021/07/09 12:19:58;;;;;;;;;;;19.50;67.30;;;;;;5031582;28;19929;-75
2021/07/09 12:22:26;;;;;;;;;;;19.40;68.00;;;;;;5002759;28;19929;-75
2021/07/09 12:24:52;;;;;;;;;;;19.40;68.70;;;;;;5021561;28;20389;-75
2021/07/09 12:27:19;;;;;;;;;;;19.40;68.70;;;;;;5028619;28;19925;-76
2021/07/09 12:29:46;;;;;;;;;;;19.40;67.90;;;;;;5029116;28;19925;-75
2021/07/09 12:32:12;;;;;;;;;;;19.40;66.70;;;;;;5028113;28;19925;-75
2021/07/09 12:34:38;;;;;;;;;;;19.40;66.70;;;;;;5028804;28;20281;-75
2021/07/09 12:37:05;;;;;;;;;;;19.40;67.20;;;;;;5007079;28;19995;-75
2021/07/09 12:39:31;;;;;;;;;;;19.40;67.60;;;;;;5027083;28;19931;-75
2021/07/09 12:42:08;;;;;;;;;;;19.40;66.70;;;;;;5024607;28;19929;-75
2021/07/09 12:44:34;;;;;;;;;;;19.40;65.30;;;;;;5027378;28;20079;-76
2021/07/09 12:47:01;;;;;;;;;;;19.30;65.80;;;;;;5028449;28;19932;-76
2021/07/09 12:49:27;;;;;;;;;;;19.30;66.40;;;;;;5028757;28;19931;-76
2021/07/09 12:52:03;;;;;;;;;;;19.30;66.80;;;;;;5008271;28;19926;-76
2021/07/09 12:54:31;;;;;;;;;;;19.40;66.70;;;;;;5029197;28;19925;-75
2021/07/09 12:57:00;;;;;;;;;;;19.40;65.70;;;;;;5014903;28;19974;-75
2021/07/09 12:59:26;;;;;;;;;;;19.50;65.70;;;;;;5028809;28;20322;-75
2021/07/09 13:02:00;;;;;;;;;;;19.50;65.00;;;;;;5028168;28;19928;-76
2021/07/09 13:04:27;;;;;;;;;;;19.50;64.80;;;;;;5028609;28;19928;-75
2021/07/09 13:07:10;;;;;;;;;;;19.50;65.20;;;;;;5028240;28;19925;-75
2021/07/09 13:09:43;;;;;;;;;;;19.50;64.80;;;;;;5028626;28;20008;-75
2021/07/09 13:12:32;;;;;;;;;;;19.40;65.50;;;;;;5008379;28;19932;-75
2021/07/09 13:14:59;;;;;;;;;;;19.40;65.40;;;;;;5021595;28;20068;-75
2021/07/09 13:17:26;;;;;;;;;;;19.40;64.90;;;;;;5027954;28;19964;-75
2021/07/09 13:19:58;;;;;;;;;;;19.40;65.00;;;;;;5028106;28;19932;-75
2021/07/09 13:22:33;;;;;;;;;;;19.40;65.40;;;;;;5015791;28;19933;-75
2021/07/09 13:25:09;;;;;;;;;;;19.30;65.50;;;;;;5006915;28;20011;-76
2021/07/09 13:27:36;;;;;;;;;;;19.30;65.70;;;;;;5017147;28;19932;-75
2021/07/09 13:30:03;;;;;;;;;;;19.10;65.80;;;;;;5027694;28;20345;-75
2021/07/09 13:32:33;;;;;;;;;;;19.10;66.20;;;;;;5027877;28;20388;-75
2021/07/09 13:35:00;;;;;;;;;;;19.00;66.20;;;;;;5028057;28;20011;-75
2021/07/09 13:37:26;;;;;;;;;;;19.00;66.30;;;;;;5028259;28;19970;-75
2021/07/09 13:39:52;;;;;;;;;;;19.00;66.20;;;;;;5010222;28;19925;-75
2021/07/09 13:42:18;;;;;;;;;;;19.00;66.00;;;;;;5021394;28;19991;-76
2021/07/09 13:44:44;;;;;;;;;;;19.00;66.30;;;;;;5027986;28;19976;-75
2021/07/09 13:47:10;;;;;;;;;;;19.10;66.00;;;;;;5028238;28;19925;-75
2021/07/09 13:49:37;;;;;;;;;;;19.20;65.80;;;;;;5028099;28;19976;-75
2021/07/09 13:52:03;;;;;;;;;;;19.30;65.40;;;;;;5025968;28;20067;-76
2021/07/09 13:54:29;;;;;;;;;;;19.30;65.40;;;;;;5020968;28;20333;-75
2021/07/09 13:56:55;;;;;;;;;;;19.40;65.20;;;;;;5022926;28;20399;-75
2021/07/09 13:59:22;;;;;;;;;;;19.40;64.30;;;;;;5027438;28;20706;-75
2021/07/09 14:01:48;;;;;;;;;;;19.30;64.90;;;;;;5028150;28;19964;-75
2021/07/09 14:04:14;;;;;;;;;;;19.40;65.00;;;;;;5029036;28;20526;-75
2021/07/09 14:06:40;;;;;;;;;;;19.50;65.00;;;;;;5010239;28;19929;-75
2021/07/09 14:09:06;;;;;;;;;;;19.60;65.10;;;;;;5028927;28;19932;-75
2021/07/09 14:11:32;;;;;;;;;;;19.70;64.80;;;;;;5013434;28;20035;-75
2021/07/09 14:13:58;;;;;;;;;;;19.80;64.90;;;;;;5028871;28;20016;-75
2021/07/09 14:16:24;;;;;;;;;;;20.00;64.50;;;;;;5031478;28;20443;-75
2021/07/09 14:18:51;;;;;;;;;;;20.10;64.20;;;;;;5031589;28;19925;-75
2021/07/09 14:21:17;;;;;;;;;;;20.20;64.10;;;;;;5031382;28;19925;-75